createdAt,value
2023-04-06T00:01:56.051Z,2.10
2023-04-06T00:04:23.887Z,2.10
2023-04-06T00:06:51.641Z,2.00
2023-04-06T00:09:19.399Z,1.90
2023-04-06T00:11:48.546Z,1.90
2023-04-06T00:14:18.317Z,1.90
2023-04-06T00:16:46.242Z,1.80
2023-04-06T00:19:14.169Z,1.70
2023-04-06T00:21:42.301Z,1.80
2023-04-06T00:24:10.105Z,1.80
2023-04-06T00:26:37.864Z,1.70
2023-04-06T00:29:07.379Z,1.80
2023-04-06T00:31:35.436Z,1.70
2023-04-06T00:34:03.216Z,1.80
2023-04-06T00:36:30.953Z,1.70
2023-04-06T00:38:58.739Z,1.70
2023-04-06T00:41:26.880Z,1.70
2023-04-06T00:43:56.002Z,1.50
2023-04-06T00:46:25.420Z,1.50
2023-04-06T00:48:53.308Z,1.50
2023-04-06T00:51:21.255Z,1.50
2023-04-06T00:53:49.034Z,1.40
2023-04-06T00:56:16.821Z,1.40
2023-04-06T00:58:44.626Z,1.40
2023-04-06T01:01:12.521Z,1.40
2023-04-06T01:03:43.191Z,1.30
2023-04-06T01:06:10.945Z,1.40
2023-04-06T01:08:38.811Z,1.40
2023-04-06T01:11:06.624Z,1.30
2023-04-06T01:13:34.572Z,1.30
2023-04-06T01:16:02.485Z,1.30
2023-04-06T01:18:31.256Z,1.30
2023-04-06T01:21:00.687Z,1.20
2023-04-06T01:23:29.888Z,1.20
2023-04-06T01:25:57.675Z,1.40
2023-04-06T01:28:25.656Z,1.40
2023-04-06T01:30:53.672Z,1.60
2023-04-06T01:33:21.453Z,1.90
2023-04-06T01:35:49.298Z,1.70
2023-04-06T01:38:17.149Z,1.50
2023-04-06T01:40:46.441Z,1.30
2023-04-06T01:43:14.269Z,1.20
2023-04-06T01:45:42.127Z,1.10
2023-04-06T01:48:10.075Z,1.10
2023-04-06T01:50:37.842Z,1.10
2023-04-06T01:53:05.659Z,0.90
2023-04-06T01:55:33.460Z,0.90
2023-04-06T01:58:02.568Z,1.00
2023-04-06T02:00:30.664Z,1.40
2023-04-06T02:02:58.534Z,1.50
2023-04-06T02:05:27.219Z,1.40
2023-04-06T02:07:55.010Z,1.40
2023-04-06T02:10:22.818Z,1.50
2023-04-06T02:12:50.819Z,1.70
2023-04-06T02:15:20.017Z,1.70
2023-04-06T02:17:47.829Z,1.60
2023-04-06T02:20:15.737Z,1.50
2023-04-06T02:22:43.632Z,1.30
2023-04-06T02:25:11.545Z,1.30
2023-04-06T02:27:39.546Z,1.20
2023-04-06T02:30:08.740Z,1.30
2023-04-06T02:32:37.930Z,1.20
2023-04-06T02:35:06.459Z,1.10
2023-04-06T02:37:34.296Z,1.00
2023-04-06T02:40:02.118Z,1.00
2023-04-06T02:42:30.292Z,0.90
2023-04-06T02:44:58.059Z,0.70
2023-04-06T02:47:25.901Z,0.70
2023-04-06T02:49:55.055Z,0.60
2023-04-06T02:52:22.877Z,0.60
2023-04-06T02:54:52.016Z,0.50
2023-04-06T02:57:19.868Z,0.50
2023-04-06T02:59:47.703Z,0.40
2023-04-06T03:02:15.587Z,0.40
2023-04-06T03:04:44.135Z,0.50
2023-04-06T03:07:13.277Z,0.60
2023-04-06T03:09:41.184Z,0.60
2023-04-06T03:12:10.313Z,0.50
2023-04-06T03:14:38.309Z,0.40
2023-04-06T03:17:06.244Z,0.40
2023-04-06T03:19:34.027Z,0.40
2023-04-06T03:22:02.000Z,0.40
2023-04-06T03:24:31.154Z,0.40
2023-04-06T03:26:58.933Z,0.40
2023-04-06T03:29:26.743Z,0.30
2023-04-06T03:31:54.505Z,0.30
2023-04-06T03:34:22.290Z,0.30
2023-04-06T03:36:59.794Z,0.30
2023-04-06T03:39:38.209Z,0.30
2023-04-06T03:42:06.253Z,0.30
2023-04-06T03:44:34.052Z,0.40
2023-04-06T03:47:01.940Z,0.30
2023-04-06T03:49:29.758Z,0.30
2023-04-06T03:51:58.441Z,0.40
2023-04-06T03:54:26.240Z,0.40
2023-04-06T03:56:56.103Z,0.50
2023-04-06T03:59:24.014Z,0.60
2023-04-06T04:01:52.037Z,0.70
2023-04-06T04:04:19.961Z,0.60
2023-04-06T04:06:47.762Z,0.50
2023-04-06T04:09:15.773Z,0.50
2023-04-06T04:11:43.563Z,0.60
2023-04-06T04:14:12.771Z,0.50
2023-04-06T04:16:42.257Z,0.50
2023-04-06T04:19:10.499Z,0.40
2023-04-06T04:21:45.358Z,0.50
2023-04-06T04:24:13.307Z,0.50
2023-04-06T04:26:41.575Z,0.40
2023-04-06T04:29:09.974Z,0.30
2023-04-06T04:31:39.406Z,0.30
2023-04-06T04:34:08.026Z,0.30
2023-04-06T04:36:35.870Z,0.70
2023-04-06T04:39:03.714Z,0.70
2023-04-06T04:41:31.930Z,0.50
2023-04-06T04:43:59.765Z,0.50
2023-04-06T04:46:27.596Z,0.50
2023-04-06T04:48:56.932Z,0.50
2023-04-06T04:51:25.615Z,0.80
2023-04-06T04:53:53.548Z,0.70
2023-04-06T04:56:21.367Z,0.70
2023-04-06T04:58:49.165Z,0.70
2023-04-06T05:01:17.022Z,0.90
2023-04-06T05:03:44.958Z,1.00
2023-04-06T05:06:14.232Z,1.20
2023-04-06T05:08:42.461Z,1.20
2023-04-06T05:11:10.900Z,1.10
2023-04-06T05:13:38.793Z,1.20
2023-04-06T05:16:07.050Z,1.30
2023-04-06T05:18:35.070Z,1.40
2023-04-06T05:21:02.959Z,1.40
2023-04-06T05:23:32.211Z,1.20
2023-04-06T05:26:00.167Z,1.20
2023-04-06T05:28:27.989Z,1.30
2023-04-06T05:30:55.861Z,1.40
2023-04-06T05:33:23.737Z,1.40
2023-04-06T05:35:51.649Z,1.30
2023-04-06T05:38:19.458Z,1.40
2023-04-06T05:40:48.771Z,1.40
2023-04-06T05:43:16.571Z,1.30
2023-04-06T05:45:46.449Z,1.30
2023-04-06T05:48:14.324Z,1.40
2023-04-06T05:50:42.170Z,1.60
2023-04-06T05:53:09.955Z,1.50
2023-04-06T05:55:37.810Z,1.50
2023-04-06T05:58:06.917Z,1.40
2023-04-06T06:00:35.402Z,1.40
2023-04-06T06:03:05.199Z,1.30
2023-04-06T06:05:33.061Z,1.50
2023-04-06T06:08:03.141Z,1.80
2023-04-06T06:10:31.126Z,1.90
2023-04-06T06:12:58.989Z,1.80
2023-04-06T06:15:28.195Z,2.00
2023-04-06T06:17:56.064Z,2.00
2023-04-06T06:20:24.318Z,2.20
2023-04-06T06:22:52.198Z,2.20
2023-04-06T06:25:20.085Z,2.20
2023-04-06T06:27:47.889Z,2.20
2023-04-06T06:30:16.209Z,2.20
2023-04-06T06:32:45.479Z,2.20
2023-04-06T06:35:13.343Z,2.20
2023-04-06T06:37:41.219Z,2.30
2023-04-06T06:40:10.595Z,2.60
2023-04-06T06:42:38.452Z,2.80
2023-04-06T06:45:07.615Z,2.80
2023-04-06T06:47:35.579Z,3.00
2023-04-06T06:50:05.407Z,3.00
2023-04-06T06:52:33.227Z,3.20
2023-04-06T06:55:01.138Z,3.40
2023-04-06T06:57:29.728Z,3.50
2023-04-06T06:59:57.512Z,3.70
2023-04-06T07:02:25.718Z,3.80
2023-04-06T07:04:53.619Z,3.90
2023-04-06T07:07:22.868Z,4.00
2023-04-06T07:09:50.977Z,4.20
2023-04-06T07:12:18.765Z,4.30
2023-04-06T07:14:46.539Z,4.40
2023-04-06T07:17:14.504Z,4.50
2023-04-06T07:19:42.643Z,4.60
2023-04-06T07:22:10.666Z,4.70
2023-04-06T07:24:39.872Z,4.80
2023-04-06T07:27:08.118Z,4.90
2023-04-06T07:29:36.010Z,5.00
2023-04-06T07:32:03.970Z,5.20
2023-04-06T07:34:31.844Z,5.30
2023-04-06T07:37:01.806Z,5.50
2023-04-06T07:39:31.610Z,5.60
2023-04-06T07:42:01.010Z,5.80
2023-04-06T07:44:28.961Z,6.10
2023-04-06T07:46:56.791Z,6.30
2023-04-06T07:51:52.871Z,8.40
2023-04-06T07:54:20.627Z,9.70
2023-04-06T07:56:48.397Z,10.70
2023-04-06T07:59:17.594Z,11.80
2023-04-06T08:01:45.460Z,12.60
2023-04-06T08:04:13.460Z,13.20
2023-04-06T08:06:42.171Z,13.80
2023-04-06T08:09:09.959Z,14.20
2023-04-06T08:11:37.854Z,14.20
2023-04-06T08:14:05.647Z,14.70
2023-04-06T08:16:34.936Z,14.90
2023-04-06T08:19:02.733Z,15.10
2023-04-06T08:21:30.509Z,15.20
2023-04-06T08:23:58.275Z,15.90
2023-04-06T08:26:26.418Z,15.80
2023-04-06T08:28:54.225Z,15.90
2023-04-06T08:31:22.177Z,16.10
2023-04-06T08:33:51.382Z,15.80
2023-04-06T08:36:23.454Z,16.10
2023-04-06T08:38:51.577Z,16.30
2023-04-06T08:41:20.347Z,16.20
2023-04-06T08:43:50.358Z,15.70
2023-04-06T08:46:18.223Z,15.80
2023-04-06T08:48:49.801Z,15.80
2023-04-06T08:51:20.561Z,15.90
2023-04-06T08:53:49.565Z,16.10
2023-04-06T08:56:18.036Z,15.80
2023-04-06T08:58:46.271Z,16.20
2023-04-06T09:01:16.580Z,16.20
2023-04-06T09:03:45.536Z,16.80
2023-04-06T09:06:14.984Z,16.70
2023-04-06T09:08:44.446Z,16.80
2023-04-06T09:11:13.200Z,16.20
2023-04-06T09:13:48.332Z,16.60
2023-04-06T09:16:16.298Z,17.10
2023-04-06T09:18:44.609Z,16.90
2023-04-06T09:21:13.098Z,17.20
2023-04-06T09:23:41.226Z,17.30
2023-04-06T09:26:12.739Z,17.70
2023-04-06T09:28:48.701Z,17.90
2023-04-06T09:31:18.128Z,18.00
2023-04-06T09:33:47.545Z,18.10
2023-04-06T09:36:16.700Z,17.90
2023-04-06T09:38:55.296Z,17.90
2023-04-06T09:41:25.880Z,18.20
2023-04-06T09:43:54.516Z,18.20
2023-04-06T09:46:24.404Z,18.00
2023-04-06T09:48:53.123Z,18.20
2023-04-06T09:51:22.329Z,18.10
2023-04-06T09:53:55.571Z,18.20
2023-04-06T09:56:29.725Z,17.90
2023-04-06T09:59:04.456Z,17.80
2023-04-06T10:01:35.772Z,17.50
2023-04-06T10:04:15.521Z,17.30
2023-04-06T10:06:43.694Z,17.10
2023-04-06T10:09:12.068Z,17.10
2023-04-06T10:11:41.598Z,17.10
2023-04-06T10:14:09.779Z,16.80
2023-04-06T10:16:38.107Z,17.10
2023-04-06T10:19:13.582Z,17.10
2023-04-06T10:21:43.726Z,16.80
2023-04-06T10:24:13.142Z,16.80
2023-04-06T10:26:42.364Z,17.40
2023-04-06T10:29:10.370Z,17.90
2023-04-06T10:31:44.359Z,17.80
2023-04-06T10:34:12.760Z,17.20
2023-04-06T10:36:40.560Z,17.60
2023-04-06T10:39:08.741Z,17.60
2023-04-06T10:41:37.761Z,17.50
2023-04-06T10:44:07.162Z,17.70
2023-04-06T10:46:36.080Z,17.50
2023-04-06T10:49:13.097Z,17.40
2023-04-06T10:51:41.475Z,17.10
2023-04-06T10:54:09.580Z,17.40
2023-04-06T10:56:40.731Z,17.50
2023-04-06T10:59:10.083Z,17.90
2023-04-06T11:01:37.938Z,17.70
2023-04-06T11:04:06.250Z,17.70
2023-04-06T11:06:34.264Z,17.70
2023-04-06T11:09:02.175Z,18.20
2023-04-06T11:11:30.129Z,18.30
2023-04-06T11:13:59.148Z,18.50
2023-04-06T11:16:29.448Z,18.20
2023-04-06T11:18:59.456Z,17.90
2023-04-06T11:21:35.437Z,17.90
2023-04-06T11:24:11.257Z,17.80
2023-04-06T11:26:40.652Z,18.00
2023-04-06T11:29:08.775Z,17.90
2023-04-06T11:31:42.076Z,17.90
2023-04-06T11:34:14.810Z,17.90
2023-04-06T11:36:43.687Z,17.50
2023-04-06T11:39:12.590Z,17.20
2023-04-06T11:41:41.798Z,17.10
2023-04-06T11:44:09.749Z,17.10
2023-04-06T11:46:37.584Z,17.10
2023-04-06T11:49:07.330Z,17.10
2023-04-06T11:51:38.042Z,17.10
2023-04-06T11:54:05.897Z,17.10
2023-04-06T11:56:33.645Z,17.20
2023-04-06T11:59:01.665Z,17.20
2023-04-06T12:01:34.118Z,17.00
2023-04-06T12:04:06.193Z,16.90
2023-04-06T12:06:34.093Z,16.80
2023-04-06T12:09:01.878Z,17.00
2023-04-06T12:11:29.647Z,17.10
2023-04-06T12:13:57.459Z,16.90
2023-04-06T12:16:25.364Z,16.80
2023-04-06T12:18:53.693Z,16.40
2023-04-06T12:21:22.793Z,16.40
2023-04-06T12:23:50.954Z,16.30
2023-04-06T12:26:18.708Z,16.30
2023-04-06T12:28:46.538Z,16.40
2023-04-06T12:31:17.823Z,16.30
2023-04-06T12:33:48.031Z,16.20
2023-04-06T12:36:16.623Z,15.90
2023-04-06T12:38:46.700Z,15.80
2023-04-06T12:41:14.537Z,15.60
2023-04-06T12:43:43.271Z,15.60
2023-04-06T12:46:11.656Z,15.40
2023-04-06T12:48:40.078Z,15.50
2023-04-06T12:51:08.221Z,15.40
2023-04-06T12:53:37.281Z,15.40
2023-04-06T12:56:13.968Z,15.30
2023-04-06T12:58:42.756Z,15.40
2023-04-06T13:01:11.720Z,15.40
2023-04-06T13:03:39.552Z,15.50
2023-04-06T13:06:09.231Z,15.30
2023-04-06T13:08:38.135Z,15.20
2023-04-06T13:11:09.784Z,15.30
2023-04-06T13:13:39.126Z,15.10
2023-04-06T13:16:09.092Z,15.20
2023-04-06T13:18:39.529Z,15.20
2023-04-06T13:21:08.185Z,15.30
2023-04-06T13:23:36.545Z,15.30
2023-04-06T13:26:06.317Z,15.20
2023-04-06T13:28:38.675Z,15.10
2023-04-06T13:31:06.879Z,14.90
2023-04-06T13:33:35.184Z,15.00
2023-04-06T13:36:03.014Z,15.10
2023-04-06T13:38:31.637Z,15.20
2023-04-06T13:40:59.439Z,15.20
2023-04-06T13:43:28.080Z,15.00
2023-04-06T13:45:59.014Z,15.00
2023-04-06T13:48:27.274Z,15.00
2023-04-06T13:50:55.056Z,15.10
2023-04-06T13:53:23.001Z,15.20
2023-04-06T13:55:57.214Z,15.20
2023-04-06T13:58:25.687Z,15.10
2023-04-06T14:00:53.731Z,15.10
2023-04-06T14:03:24.411Z,15.10
2023-04-06T14:05:52.411Z,15.00
2023-04-06T14:08:20.353Z,14.80
2023-04-06T14:10:48.176Z,14.90
2023-04-06T14:13:16.457Z,14.80
2023-04-06T14:15:44.321Z,14.60
2023-04-06T14:18:12.633Z,14.60
2023-04-06T14:20:42.828Z,14.70
2023-04-06T14:23:10.687Z,14.50
2023-04-06T14:25:38.461Z,14.60
2023-04-06T14:28:06.269Z,14.50
2023-04-06T14:30:34.083Z,14.50
2023-04-06T14:33:02.021Z,14.40
2023-04-06T14:35:31.577Z,14.50
2023-04-06T14:38:02.451Z,14.50
2023-04-06T14:40:30.323Z,14.40
2023-04-06T14:42:58.071Z,14.40
2023-04-06T14:45:25.971Z,14.30
2023-04-06T14:47:53.846Z,14.30
2023-04-06T14:50:21.667Z,14.20
2023-04-06T14:52:49.540Z,14.30
2023-04-06T14:55:18.864Z,14.40
2023-04-06T14:57:46.654Z,14.40
2023-04-06T15:00:15.674Z,14.30
2023-04-06T15:02:44.377Z,14.20
2023-04-06T15:05:12.879Z,14.20
2023-04-06T15:07:40.709Z,14.20
2023-04-06T15:10:10.918Z,14.20
2023-04-06T15:12:41.464Z,14.30
2023-04-06T15:15:10.566Z,14.30
2023-04-06T15:17:38.615Z,14.20
2023-04-06T15:20:07.742Z,14.00
2023-04-06T15:22:35.563Z,14.00
2023-04-06T15:25:03.457Z,14.00
2023-04-06T15:27:31.616Z,13.80
2023-04-06T15:30:01.181Z,13.80
2023-04-06T15:32:29.163Z,13.90
2023-04-06T15:34:59.416Z,13.90
2023-04-06T15:37:27.366Z,13.90
2023-04-06T15:39:55.288Z,13.70
2023-04-06T15:42:23.062Z,13.60
2023-04-06T15:44:51.012Z,13.60
2023-04-06T15:47:20.341Z,13.50
2023-04-06T15:49:48.269Z,13.40
2023-04-06T15:52:16.080Z,13.30
2023-04-06T15:54:43.852Z,13.40
2023-04-06T15:57:11.653Z,13.30
2023-04-06T15:59:39.406Z,13.20
2023-04-06T16:02:07.535Z,13.10
2023-04-06T16:04:37.038Z,13.00
2023-04-06T16:07:05.000Z,13.00
2023-04-06T16:09:32.840Z,12.90
2023-04-06T16:12:01.726Z,12.90
2023-04-06T16:14:29.487Z,12.90
2023-04-06T16:16:59.733Z,12.90
2023-04-06T16:19:27.586Z,12.80
2023-04-06T16:21:57.675Z,12.90
2023-04-06T16:24:25.511Z,13.00
2023-04-06T16:26:53.426Z,12.80
2023-04-06T16:29:22.149Z,12.70
2023-04-06T16:31:50.155Z,12.70
2023-04-06T16:34:18.653Z,12.70
2023-04-06T16:36:46.722Z,12.70
2023-04-06T16:39:17.128Z,12.70
2023-04-06T16:41:44.946Z,12.60
2023-04-06T16:44:13.098Z,12.60
2023-04-06T16:46:41.398Z,12.50
2023-04-06T16:49:09.201Z,12.50
2023-04-06T16:51:37.639Z,12.50
2023-04-06T16:54:06.123Z,12.40
2023-04-06T16:56:35.360Z,12.40
2023-04-06T16:59:03.228Z,12.40
2023-04-06T17:01:31.130Z,12.40
2023-04-06T17:03:59.159Z,12.30
2023-04-06T17:06:28.016Z,12.20
2023-04-06T17:08:56.207Z,12.20
2023-04-06T17:11:28.479Z,12.10
2023-04-06T17:14:01.890Z,12.10
2023-04-06T17:16:29.770Z,12.10
2023-04-06T17:18:58.146Z,12.00
2023-04-06T17:21:26.225Z,11.90
2023-04-06T17:23:54.483Z,11.80
2023-04-06T17:26:22.641Z,11.80
2023-04-06T17:28:50.603Z,11.70
2023-04-06T17:31:20.197Z,11.60
2023-04-06T17:33:48.537Z,11.50
2023-04-06T17:36:16.483Z,11.40
2023-04-06T17:38:45.755Z,11.40
2023-04-06T17:41:14.468Z,11.50
2023-04-06T17:43:42.405Z,11.40
2023-04-06T17:46:10.577Z,11.30
2023-04-06T17:48:39.736Z,11.40
2023-04-06T17:51:07.779Z,11.40
2023-04-06T17:53:36.806Z,11.40
2023-04-06T17:56:05.354Z,11.40
2023-04-06T17:58:33.137Z,11.30
2023-04-06T18:01:01.122Z,11.20
2023-04-06T18:03:28.951Z,11.20
2023-04-06T18:05:58.330Z,11.10
2023-04-06T18:08:26.208Z,11.00
2023-04-06T18:10:53.986Z,11.10
2023-04-06T18:13:22.208Z,11.10
2023-04-06T18:15:50.017Z,10.90
2023-04-06T18:18:17.859Z,10.80
2023-04-06T18:20:45.727Z,10.80
2023-04-06T18:23:15.072Z,10.90
2023-04-06T18:25:43.017Z,10.70
2023-04-06T18:28:11.304Z,10.80
2023-04-06T18:30:39.081Z,10.70
2023-04-06T18:33:07.725Z,10.70
2023-04-06T18:35:35.753Z,10.70
2023-04-06T18:38:03.693Z,10.60
2023-04-06T18:40:34.035Z,10.50
2023-04-06T18:43:03.034Z,10.50
2023-04-06T18:45:33.188Z,10.40
2023-04-06T18:48:01.262Z,10.50
2023-04-06T18:50:29.205Z,10.50
2023-04-06T18:52:57.058Z,10.50
2023-04-06T18:55:24.847Z,10.40
2023-04-06T18:57:53.997Z,10.40
2023-04-06T19:00:21.959Z,10.50
2023-04-06T19:02:49.984Z,10.50
2023-04-06T19:07:49.402Z,10.30
2023-04-06T19:10:17.156Z,10.30
2023-04-06T19:12:44.960Z,10.20
2023-04-06T19:15:14.549Z,10.10
2023-04-06T19:17:42.513Z,10.10
2023-04-06T19:20:11.268Z,10.00
2023-04-06T19:22:39.425Z,10.00
2023-04-06T19:25:08.770Z,10.10
2023-04-06T19:27:36.593Z,10.10
2023-04-06T19:30:04.858Z,10.00
2023-04-06T19:32:34.591Z,10.00
2023-04-06T19:35:06.196Z,10.00
2023-04-06T19:37:34.162Z,10.00
2023-04-06T19:40:02.051Z,10.00
2023-04-06T19:42:30.115Z,10.00
2023-04-06T19:44:58.631Z,10.00
2023-04-06T19:47:26.579Z,10.00
2023-04-06T19:49:55.836Z,10.00
2023-04-06T19:52:23.722Z,9.90
2023-04-06T19:54:51.490Z,9.90
2023-04-06T19:57:19.310Z,9.90
2023-04-06T19:59:47.066Z,10.00
2023-04-06T20:02:15.025Z,9.90
2023-04-06T20:04:43.086Z,9.90
2023-04-06T20:07:12.449Z,10.00
2023-04-06T20:09:40.337Z,9.90
2023-04-06T20:12:08.238Z,9.90
2023-04-06T20:14:36.269Z,9.70
2023-04-06T20:17:04.199Z,9.80
2023-04-06T20:19:32.082Z,9.70
2023-04-06T20:22:03.182Z,9.80
2023-04-06T20:24:32.385Z,9.80
2023-04-06T20:27:00.186Z,9.80
2023-04-06T20:29:28.003Z,9.80
2023-04-06T20:31:55.856Z,9.60
2023-04-06T20:34:26.021Z,9.60
2023-04-06T20:36:53.855Z,9.70
2023-04-06T20:39:21.785Z,9.80
2023-04-06T20:41:52.709Z,9.80
2023-04-06T20:44:21.297Z,9.80
2023-04-06T20:46:49.945Z,9.80
2023-04-06T20:49:18.447Z,9.80
2023-04-06T20:51:46.502Z,9.70
2023-04-06T20:54:14.276Z,9.70
2023-04-06T20:56:42.061Z,9.70
2023-04-06T20:59:11.310Z,9.70
2023-04-06T21:01:39.601Z,9.70
2023-04-06T21:04:07.632Z,9.80
2023-04-06T21:06:35.972Z,9.80
2023-04-06T21:09:03.755Z,9.60
2023-04-06T21:11:31.536Z,9.60
2023-04-06T21:13:59.331Z,9.60
2023-04-06T21:16:28.745Z,9.60
2023-04-06T21:18:56.581Z,9.50
2023-04-06T21:21:24.418Z,9.50
2023-04-06T21:23:53.300Z,9.60
2023-04-06T21:26:21.124Z,9.60
2023-04-06T21:28:48.887Z,9.70
2023-04-06T21:31:19.790Z,9.80
2023-04-06T21:33:49.667Z,9.80
2023-04-06T21:36:17.443Z,9.90
2023-04-06T21:38:45.423Z,10.00
2023-04-06T21:41:13.456Z,10.10
2023-04-06T21:43:41.311Z,10.10
2023-04-06T21:46:09.625Z,10.10
2023-04-06T21:48:37.562Z,10.10
2023-04-06T21:51:06.714Z,10.10
2023-04-06T21:53:34.486Z,10.30
2023-04-06T21:56:02.634Z,10.40
2023-04-06T21:58:30.488Z,10.40
2023-04-06T22:00:58.672Z,10.30
2023-04-06T22:03:27.322Z,10.30
2023-04-06T22:05:55.516Z,10.40
2023-04-06T22:08:33.418Z,10.40
2023-04-06T22:11:06.807Z,10.30
2023-04-06T22:13:34.619Z,10.30
2023-04-06T22:16:02.400Z,10.30
2023-04-06T22:18:30.315Z,10.40
2023-04-06T22:20:58.429Z,10.40
2023-04-06T22:23:27.680Z,10.50
2023-04-06T22:25:57.937Z,10.50
2023-04-06T22:28:26.293Z,10.60
2023-04-06T22:30:54.227Z,10.40
2023-04-06T22:33:22.059Z,10.50
2023-04-06T22:35:49.975Z,10.40
2023-04-06T22:38:17.832Z,10.30
2023-04-06T22:40:46.958Z,10.30
2023-04-06T22:43:14.734Z,10.20
2023-04-06T22:45:42.493Z,10.30
2023-04-06T22:48:10.342Z,10.20
2023-04-06T22:50:38.176Z,10.20
2023-04-06T22:53:06.072Z,10.20
2023-04-06T22:55:33.874Z,10.30
2023-04-06T22:58:03.016Z,10.20
2023-04-06T23:00:31.195Z,10.20
2023-04-06T23:02:59.334Z,10.30
2023-04-06T23:05:27.316Z,10.30
2023-04-06T23:07:55.172Z,10.20
2023-04-06T23:10:22.960Z,10.20
2023-04-06T23:12:50.704Z,10.20
2023-04-06T23:15:19.960Z,10.20
2023-04-06T23:17:47.768Z,10.30
2023-04-06T23:20:15.756Z,10.20
2023-04-06T23:22:43.579Z,10.20
2023-04-06T23:25:11.499Z,10.20
2023-04-06T23:27:39.248Z,10.20
2023-04-06T23:30:08.290Z,10.30
2023-04-06T23:32:37.490Z,10.20
2023-04-06T23:35:05.733Z,10.20
2023-04-06T23:37:33.490Z,10.30
2023-04-06T23:40:01.821Z,10.20
2023-04-06T23:42:29.636Z,10.30
2023-04-06T23:44:57.468Z,10.20
2023-04-06T23:47:25.313Z,10.10
2023-04-06T23:49:54.461Z,10.10
2023-04-06T23:52:22.222Z,10.20
2023-04-06T23:54:50.022Z,10.30
2023-04-06T23:57:17.775Z,10.30
2023-04-06T23:59:45.950Z,10.30
